Time;durP1;ratioP1;P1;durP2;ratioP2;P2;SDS_P1;SDS_P2;PMS_P1;PMS_P2;Temp;Humidity;BMP_temperature;BMP_pressure;BME280_temperature;BME280_humidity;BME280_pressure;Samples;Min_cycle;Max_cycle;Signal;HPM_P1;HPM_P2
2023/01/09 00:00:28;;;;;;;0.90;0.50;;;8.60;1.00;;;;;;4886831;29;20210;-85
2023/01/09 00:02:53;;;;;;;1.63;0.60;;;8.60;1.00;;;;;;4879988;29;20249;-85
2023/01/09 00:05:19;;;;;;;1.53;0.60;;;8.50;1.00;;;;;;4877357;29;20235;-85
2023/01/09 00:07:44;;;;;;;1.13;0.60;;;8.50;1.00;;;;;;4886305;29;20219;-84
2023/01/09 00:10:11;;;;;;;1.03;0.50;;;8.50;1.00;;;;;;4889986;29;20217;-84
2023/01/09 00:12:37;;;;;;;1.17;0.50;;;8.50;1.00;;;;;;4883830;29;20599;-84
2023/01/09 00:15:04;;;;;;;0.80;0.50;;;8.50;1.00;;;;;;4896527;29;21183;-84
2023/01/09 00:17:29;;;;;;;1.15;0.68;;;8.40;1.00;;;;;;4889067;29;20222;-84
2023/01/09 00:19:57;;;;;;;1.30;0.70;;;8.40;1.00;;;;;;4894576;29;20766;-86
2023/01/09 00:22:22;;;;;;;0.90;0.50;;;8.40;1.00;;;;;;4897030;29;20202;-84
2023/01/09 00:24:51;;;;;;;1.10;0.60;;;8.40;1.00;;;;;;4891516;29;20198;-85
2023/01/09 00:27:17;;;;;;;1.00;0.60;;;8.40;1.00;;;;;;4889584;29;20316;-85
2023/01/09 00:29:46;;;;;;;0.90;0.50;;;8.30;1.00;;;;;;4889443;29;20216;-84
2023/01/09 00:32:11;;;;;;;1.00;0.60;;;8.30;1.00;;;;;;4893052;29;20924;-85
2023/01/09 00:34:37;;;;;;;1.10;0.70;;;8.30;1.00;;;;;;4900259;29;20183;-85
2023/01/09 00:37:10;;;;;;;1.60;0.70;;;8.30;1.00;;;;;;4894570;29;20202;-85
2023/01/09 00:39:36;;;;;;;1.05;0.70;;;8.20;1.00;;;;;;4881750;29;20211;-85
2023/01/09 00:42:03;;;;;;;1.10;0.70;;;8.20;1.00;;;;;;4893247;29;20199;-85
2023/01/09 00:44:38;;;;;;;1.50;0.70;;;8.20;1.00;;;;;;4897579;29;20201;-86
2023/01/09 00:47:22;;;;;;;1.30;0.70;;;8.20;1.00;;;;;;4890657;29;20300;-85
2023/01/09 00:49:49;;;;;;;3.17;0.68;;;8.20;1.00;;;;;;4892212;29;20468;-86
2023/01/09 00:52:15;;;;;;;2.00;0.60;;;8.20;1.00;;;;;;4886395;29;20196;-85
2023/01/09 00:54:47;;;;;;;1.63;0.68;;;8.10;1.00;;;;;;4894244;29;20188;-85
2023/01/09 00:57:20;;;;;;;1.50;0.70;;;8.10;1.00;;;;;;4892724;29;20201;-84
2023/01/09 00:59:55;;;;;;;1.10;0.70;;;8.10;1.00;;;;;;4897283;29;20211;-85
2023/01/09 01:02:20;;;;;;;1.27;0.88;;;8.10;1.00;;;;;;4880851;29;20195;-86
2023/01/09 01:07:38;;;;;;;1.52;0.82;;;8.00;1.00;;;;;;4897988;29;20218;-86
2023/01/09 01:10:16;;;;;;;1.55;0.70;;;8.10;1.00;;;;;;4891821;29;20203;-85
2023/01/09 01:12:45;;;;;;;1.00;0.60;;;8.10;1.00;;;;;;4879448;29;20195;-85
2023/01/09 01:15:11;;;;;;;1.05;0.70;;;8.00;1.00;;;;;;4890860;29;20241;-85
2023/01/09 01:17:41;;;;;;;0.93;0.60;;;8.00;1.00;;;;;;4892254;29;20183;-85
2023/01/09 01:20:15;;;;;;;2.25;0.70;;;8.00;1.00;;;;;;4898971;29;20217;-86
2023/01/09 01:22:41;;;;;;;3.05;0.90;;;8.00;1.00;;;;;;4885320;29;20187;-85
2023/01/09 01:29:04;;;;;;;1.33;0.80;;;8.00;1.00;;;;;;4879372;29;20251;-85
2023/01/09 01:32:12;;;;;;;;;;;;;;;;;;;;;
2023/01/09 01:34:47;;;;;;;1.35;0.93;;;7.90;1.00;;;;;;4876085;29;20190;-85
2023/01/09 01:37:32;;;;;;;;;;;;;;;;;;;;;
2023/01/09 01:43:54;;;;;;;1.90;0.80;;;7.80;1.00;;;;;;4890300;29;20200;-86
2023/01/09 01:46:42;;;;;;;1.50;0.80;;;7.80;1.00;;;;;;4879550;29;20223;-86
2023/01/09 01:49:59;;;;;;;4.03;0.80;;;7.80;1.00;;;;;;4883666;29;20821;-85
2023/01/09 01:52:30;;;;;;;2.40;1.17;;;7.80;1.00;;;;;;4880261;29;20215;-86
2023/01/09 01:54:58;;;;;;;1.20;0.85;;;7.80;1.00;;;;;;4882185;29;20202;-86
2023/01/09 01:57:24;;;;;;;2.05;1.00;;;7.80;1.00;;;;;;4884725;29;20198;-87
2023/01/09 02:00:01;;;;;;;1.40;1.00;;;7.80;1.00;;;;;;4889827;29;20748;-85
2023/01/09 02:02:48;;;;;;;2.00;1.30;;;7.70;1.00;;;;;;4887799;29;20242;-86
2023/01/09 02:05:38;;;;;;;;;;;;;;;;;;;;;
2023/01/09 02:08:16;;;;;;;1.83;1.23;;;7.70;1.00;;;;;;4888517;29;20301;-86
2023/01/09 02:21:27;;;;;;;1.92;1.13;;;7.50;1.00;;;;;;4874110;29;20616;-85
2023/01/09 02:24:23;;;;;;;2.08;1.30;;;7.50;1.00;;;;;;4893340;29;20208;-86
2023/01/09 02:28:13;;;;;;;;;;;;;;;;;;;;;
2023/01/09 02:31:01;;;;;;;7.22;1.23;;;7.50;1.00;;;;;;4861677;29;20200;-86
2023/01/09 02:33:48;;;;;;;2.42;1.20;;;7.60;1.00;;;;;;4883897;29;20203;-84
2023/01/09 02:36:40;;;;;;;4.38;1.48;;;7.70;1.00;;;;;;4907775;29;20207;-85
2023/01/09 02:55:54;;;;;;;6.45;1.48;;;7.90;1.00;;;;;;4878721;29;20559;-86
2023/01/09 03:04:51;;;;;;;2.25;1.63;;;7.80;1.00;;;;;;4876225;29;20200;-84
2023/01/09 03:11:04;;;;;;;;;;;;;;;;;;;;;
2023/01/09 03:13:35;;;;;;;3.03;1.70;;;7.50;1.00;;;;;;4876197;29;20206;-84
2023/01/09 03:16:17;;;;;;;4.78;1.85;;;7.50;1.00;;;;;;4884899;29;20720;-84
2023/01/09 03:26:04;;;;;;;5.05;1.25;;;7.30;1.00;;;;;;4857957;29;20196;-84
2023/01/09 03:39:35;;;;;;;3.55;1.70;;;7.00;1.00;;;;;;4873201;29;20227;-85
2023/01/09 03:42:40;;;;;;;5.93;1.77;;;7.00;1.00;;;;;;4887262;29;20192;-84
2023/01/09 03:52:52;;;;;;;5.85;1.30;;;6.80;1.00;;;;;;4883388;29;20267;-85
2023/01/09 04:20:06;;;;;;;;;;;;;;;;;;;;;
2023/01/09 04:26:24;;;;;;;4.10;1.23;;;6.70;1.00;;;;;;4868284;29;20258;-84
2023/01/09 04:36:21;;;;;;;;;;;;;;;;;;;;;
2023/01/09 04:43:23;;;;;;;4.30;1.45;;;7.10;99.90;;;;;;4875342;29;20203;-85
2023/01/09 04:56:24;;;;;;;2.83;1.23;;;7.30;99.90;;;;;;4890327;29;20195;-86
2023/01/09 05:27:22;;;;;;;4.10;1.52;;;7.60;91.80;;;;;;4825568;29;20191;-85
2023/01/09 05:47:57;;;;;;;8.32;1.33;;;7.80;1.00;;;;;;4868989;29;20211;-88
2023/01/09 05:51:34;;;;;;;;;;;;;;;;;;;;;
2023/01/09 06:11:58;;;;;;;2.75;1.33;;;7.90;1.00;;;;;;4813679;29;20200;-87
2023/01/09 06:32:05;;;;;;;4.00;1.38;;;8.00;99.90;;;;;;4863712;29;20282;-87
2023/01/09 06:48:13;;;;;;;5.25;2.35;;;8.10;9.80;;;;;;4865423;29;20689;-88
2023/01/09 06:54:58;;;;;;;;;;;;;;;;;;;;;
2023/01/09 12:01:19;;;;;;;2.40;0.83;;;10.60;1.00;;;;;;1299660;27;20850;-86
2023/01/09 12:04:02;;;;;;;1.57;1.10;;;10.50;1.00;;;;;;4878128;29;20485;-86
2023/01/09 12:10:12;;;;;;;2.20;0.93;;;10.30;1.00;;;;;;4836170;29;20553;-86
2023/01/09 12:23:10;;;;;;;3.77;1.50;;;11.10;1.00;;;;;;4855645;29;20444;-86
2023/01/09 12:25:54;;;;;;;1.53;1.27;;;11.20;1.00;;;;;;4855226;29;20471;-86
2023/01/09 12:29:02;;;;;;;3.70;1.20;;;11.20;1.00;;;;;;4862543;29;20965;-86
2023/01/09 12:31:59;;;;;;;3.73;1.33;;;11.10;1.00;;;;;;4865178;29;20452;-87
2023/01/09 12:34:39;;;;;;;4.10;1.57;;;11.00;1.00;;;;;;4841516;29;20436;-87
2023/01/09 12:37:53;;;;;;;5.77;1.30;;;10.90;1.00;;;;;;4858517;29;20462;-86
2023/01/09 12:40:47;;;;;;;2.87;1.70;;;11.00;1.00;;;;;;4864726;29;20467;-86
2023/01/09 12:43:34;;;;;;;4.00;1.30;;;10.90;1.00;;;;;;4856183;29;20942;-86
2023/01/09 12:46:19;;;;;;;6.63;1.20;;;10.90;1.00;;;;;;4857345;29;20535;-87
2023/01/09 12:48:56;;;;;;;2.20;1.13;;;10.80;1.00;;;;;;4861932;29;20579;-86
2023/01/09 12:51:46;;;;;;;4.40;1.40;;;10.80;1.00;;;;;;4867329;29;20445;-86
2023/01/09 12:54:41;;;;;;;;;;;;;;;;;;;;;
2023/01/09 12:57:21;;;;;;;2.23;1.30;;;11.00;1.00;;;;;;4863408;29;20953;-86
2023/01/09 13:00:14;;;;;;;3.50;1.17;;;11.60;1.00;;;;;;4859321;29;20559;-86
2023/01/09 13:14:07;;;;;;;;;;;;;;;;;;;;;
2023/01/09 13:17:14;;;;;;;2.70;1.50;;;12.50;99.90;;;;;;4846520;29;20432;-86
2023/01/09 13:27:38;;;;;;;2.33;1.50;;;11.30;1.00;;;;;;4834832;29;20430;-86
2023/01/09 13:30:25;;;;;;;;;;;;;;;;;;;;;
2023/01/09 13:43:16;;;;;;;4.20;1.30;;;10.20;1.00;;;;;;4852168;29;20870;-86
2023/01/09 14:12:44;;;;;;;;;;;;;;;;;;;;;
2023/01/09 14:16:09;;;;;;;;;;;;;;;;;;;;;
2023/01/09 14:46:27;;;;;;;2.63;1.97;;;9.50;99.90;;;;;;4856230;29;20455;-87
